datoshorarios_respira

Este recurso contiene el identificador de cada estación RESPIRA y todos sus datos dinámicos para cada hora. No contiene el resto de atributos estáticos.

RESPIRA FIWARE es un dispositivo abierto IoT diseñado para monitorizar temperatura ambiente, humedad relativa y concentraciones de NO2 y de partículas en exteriores. Este dispositivo transmite niveles y concentraciones a una plataforma FIWARE central. Esta plataforma central es en su origen nuestro ecosistema RESPIRA IoT medioambiental desplegado para la provincia de Badajoz. https://panstamp.github.io/respira_fiware/docs/es/INDEX.html

Incrustar

Vista básica que en formato tabla muestra solo parte de los datos estructurados. Para su consulta COMPLETA debe descargarse el recurso

_id recvTime fiwareServicePath entityType entityId TimeInstant TimeInstant_md NO2 NO2_md PM10 PM10_md PM1.0 PM1.0_md PM2.5 PM2.5_md PM4.0 PM4.0_md humidity humidity_md temperature temperature_md typicalSize typicalSize_md
48869 2020-10-21T02:25:51 /envAirQualityRESPIRA3 RESPIRA RESPIRA:RESPIRA_807D3AF39910 2020-10-21T02:25:50 None 8.58 None 7.34 None 1.14 None 4.31 None 6.83 None 50.87 None 23.15 None 1.63 None
48872 2020-10-21T02:31:14 /envAirQualityRESPIRA3 RESPIRA RESPIRA:RESPIRA_A4CF1272ACE4 2020-10-21T02:31:13 None 0 None 1.42 None 0.74 None 1.11 None 1.37 None 81.25 None 15.63 None 0.66 None
48873 2020-10-21T02:32:55 /envAirQualityRESPIRA3 RESPIRA RESPIRA:RESPIRA_807D3AF39F6C 2020-10-21T02:32:55 None 134.42 None 2.51 None 1.72 None 2.17 None 2.45 None 92.01 None 16.54 None 0.69 None
48877 2020-10-21T02:49:45 /envAirQualityRESPIRA3 RESPIRA RESPIRA:RESPIRA_A4CF1272B60C 2020-10-21T02:49:45 None 117.06 None 1.24 None 0.99 None 1.11 None 1.2 None 85.26 None 15.44 None 0.75 None
48879 2020-10-21T02:56:11 /envAirQualityRESPIRA3 RESPIRA RESPIRA:RESPIRA_807D3AF39838 2020-10-21T02:56:11 None 0 None 7.31 None 1.64 None 4.56 None 6.85 None 85.68 None 16.04 None 1.34 None
48887 2020-10-21T03:21:03 /envAirQualityRESPIRA3 RESPIRA RESPIRA:RESPIRA_A4CF1275659C 2020-10-21T03:21:03 None 27.65 None 0.79 None 0.67 None 0.75 None 0.78 None 54.33 None 21.71 None 0.71 None
48889 2020-10-21T03:24:56 /envAirQualityRESPIRA3 RESPIRA RESPIRA:RESPIRA_A4CF12750498 2020-10-21T03:24:56 None 1.88 None 5.18 None 1.78 None 3.56 None 4.91 None 84.94 None 17.69 None 1.07 None
48890 2020-10-21T03:25:51 /envAirQualityRESPIRA3 RESPIRA RESPIRA:RESPIRA_807D3AF39910 2020-10-21T03:25:51 None 14.22 None 0.79 None 0.54 None 0.68 None 0.77 None 52.31 None 22.95 None 0.76 None
48891 2020-10-21T03:26:44 /envAirQualityRESPIRA3 RESPIRA RESPIRA:RESPIRA_807D3AF3AB0C 2020-10-21T03:26:44 None 0 None 4.04 None 1.44 None 2.8 None 3.83 None 97.15 None 16.36 None 0.97 None
48893 2020-10-21T03:31:14 /envAirQualityRESPIRA3 RESPIRA RESPIRA:RESPIRA_A4CF1272ACE4 2020-10-21T03:31:14 None 0 None 2.43 None 1.3 None 1.91 None 2.34 None 78.13 None 15.74 None 0.87 None
48896 2020-10-21T03:39:31 /envAirQualityRESPIRA3 RESPIRA RESPIRA:RESPIRA_30AEA4F1D164 2020-10-21T03:39:31 None 19.12 None 2.82 None 2.66 None 2.82 None 2.82 None 62.74 None 19.13 None 0.55 None
48883 2020-10-21T03:07:35 /envAirQualityRESPIRA3 RESPIRA RESPIRA:RESPIRA_807D3AF39E18 2020-10-21T03:07:34 None 3.76 None 4.5 None 1.68 None 3.28 None 4.41 None 89.97 None 14.46 None 0.97 None
48884 2020-10-21T03:10:47 /envAirQualityRESPIRA3 RESPIRA RESPIRA:RESPIRA_30AEA4F1B87C 2020-10-21T03:10:47 None 23666.85 None 3.78 None 1.41 None 2.65 None 3.59 None 100.52 None 14.68 None 0.9 None
48885 2020-10-21T03:11:04 /envAirQualityRESPIRA3 RESPIRA RESPIRA:RESPIRA_246F28179F74 2020-10-21T03:11:04 None 31.7 None 0.33 None 0.31 None 0.33 None 0.33 None 48.69 None 23.79 None 0.57 None
48886 2020-10-21T03:12:26 /envAirQualityRESPIRA3 RESPIRA RESPIRA:RESPIRA_240AC4A26E00 2020-10-21T03:12:26 None 116.46 None 6.35 None 1.91 None 4.22 None 6 None 103.55 None 14.37 None 1.03 None
48888 2020-10-21T03:24:02 /envAirQualityRESPIRA3 RESPIRA RESPIRA:RESPIRA_240AC4A3EBF8 2020-10-21T03:24:02 None 3879.16 None 2.79 None 1.09 None 1.99 None 2.66 None 87.94 None 15.48 None 0.91 None
48892 2020-10-21T03:28:04 /envAirQualityRESPIRA3 RESPIRA RESPIRA:RESPIRA_807D3AF35A5C 2020-10-21T03:28:04 None 0 None 1.64 None 1.24 None 1.48 None 1.61 None 103.8 None 14 None 0.69 None
48894 2020-10-21T03:32:56 /envAirQualityRESPIRA3 RESPIRA RESPIRA:RESPIRA_807D3AF39F6C 2020-10-21T03:32:56 None 136.3 None 3.73 None 3.13 None 3.52 None 3.7 None 93.9 None 16 None 0.71 None
48895 2020-10-21T03:34:18 /envAirQualityRESPIRA3 RESPIRA RESPIRA:RESPIRA_A4CF12752890 2020-10-21T03:34:18 None 35.46 None 0.17 None 0.05 None 0.11 None 0.16 None 54.44 None 22.47 None 0.85 None
48897 2020-10-21T03:44:19 /envAirQualityRESPIRA3 RESPIRA RESPIRA:RESPIRA_A4CF12755A8C 2020-10-21T03:44:19 None 33.92 None 0.79 None 0.4 None 0.61 None 0.76 None 58.03 None 20.55 None 0.75 None
48901 2020-10-21T03:56:12 /envAirQualityRESPIRA3 RESPIRA RESPIRA:RESPIRA_807D3AF39838 2020-10-21T03:56:11 None 0 None 4.04 None 1.26 None 2.71 None 3.82 None 85.54 None 15.97 None 1.09 None
48905 2020-10-21T04:07:35 /envAirQualityRESPIRA3 RESPIRA RESPIRA:RESPIRA_807D3AF39E18 2020-10-21T04:07:35 None 3.76 None 3.88 None 2.29 None 3.16 None 3.77 None 89.77 None 14.52 None 0.77 None
48898 2020-10-21T03:49:45 /envAirQualityRESPIRA3 RESPIRA RESPIRA:RESPIRA_A4CF1272B60C 2020-10-21T03:49:45 None 115.18 None 1.96 None 1.09 None 1.57 None 1.91 None 85.75 None 15.79 None 0.85 None
48899 2020-10-21T03:51:38 /envAirQualityRESPIRA3 RESPIRA RESPIRA:RESPIRA_A4CF12758438 2020-10-21T03:51:38 None 56.44 None 3.21 None 0.94 None 2.12 None 3.03 None 86.99 None 15.51 None 1.01 None
48900 2020-10-21T03:54:38 /envAirQualityRESPIRA3 RESPIRA RESPIRA:RESPIRA_A4CF1275559C 2020-10-21T03:54:38 None 114.48 None 2.02 None 1.42 None 1.76 None 1.97 None 85.82 None 15.1 None 0.79 None
48902 2020-10-21T03:56:51 /envAirQualityRESPIRA3 RESPIRA RESPIRA:RESPIRA_807D3AF398EC 2020-10-21T03:56:51 None 27173.11 None 4.7 None 1.49 None 3.16 None 4.44 None 77.6 None 13.8 None 0.99 None
48903 2020-10-21T03:59:35 /envAirQualityRESPIRA3 RESPIRA RESPIRA:RESPIRA_A4CF127501F8 2020-10-21T03:59:35 None 24.46 None 4.67 None 1.6 None 3.2 None 4.42 None 87.55 None 17.22 None 1 None
48904 2020-10-21T04:04:55 /envAirQualityRESPIRA3 RESPIRA RESPIRA:RESPIRA_A4CF12755D90 2020-10-21T04:04:55 None 88.45 None 3.13 None 1.05 None 2.13 None 2.96 None 80.75 None 16.78 None 1.02 None
48908 2020-10-21T04:12:26 /envAirQualityRESPIRA3 RESPIRA RESPIRA:RESPIRA_240AC4A26E00 2020-10-21T04:12:26 None 108.94 None 6.57 None 1.99 None 4.37 None 6.2 None 101.04 None 14.58 None 1.04 None
48909 2020-10-21T04:21:03 /envAirQualityRESPIRA3 RESPIRA RESPIRA:RESPIRA_A4CF1275659C 2020-10-21T04:21:03 None 27.65 None 0.89 None 0.66 None 0.8 None 0.87 None 55.39 None 21.7 None 0.71 None
48910 2020-10-21T04:24:03 /envAirQualityRESPIRA3 RESPIRA RESPIRA:RESPIRA_240AC4A3EBF8 2020-10-21T04:24:03 None 4742.72 None 3.14 None 1.37 None 2.31 None 3 None 89.65 None 15.75 None 1.03 None
48913 2020-10-21T04:26:45 /envAirQualityRESPIRA3 RESPIRA RESPIRA:RESPIRA_807D3AF3AB0C 2020-10-21T04:26:44 None 0 None 4.49 None 1.63 None 3.13 None 4.26 None 97.37 None 16.06 None 0.99 None
48914 2020-10-21T04:28:05 /envAirQualityRESPIRA3 RESPIRA RESPIRA:RESPIRA_807D3AF35A5C 2020-10-21T04:28:04 None 0 None 2.33 None 1.63 None 2.03 None 2.28 None 104.37 None 13.93 None 0.81 None
48906 2020-10-21T04:10:48 /envAirQualityRESPIRA3 RESPIRA RESPIRA:RESPIRA_30AEA4F1B87C 2020-10-21T04:10:48 None 31882.92 None 3.64 None 1.3 None 2.52 None 3.45 None 102 None 14.53 None 0.95 None
48907 2020-10-21T04:11:05 /envAirQualityRESPIRA3 RESPIRA RESPIRA:RESPIRA_246F28179F74 2020-10-21T04:11:04 None 31.7 None 0.33 None 0.31 None 0.33 None 0.33 None 48.99 None 23.8 None 0.64 None
48911 2020-10-21T04:24:57 /envAirQualityRESPIRA3 RESPIRA RESPIRA:RESPIRA_A4CF12750498 2020-10-21T04:24:56 None 1.88 None 6.82 None 3.19 None 5.12 None 6.54 None 84.61 None 17.64 None 1.01 None
48912 2020-10-21T04:25:51 /envAirQualityRESPIRA3 RESPIRA RESPIRA:RESPIRA_807D3AF39910 2020-10-21T04:25:51 None 14.22 None 0.9 None 0.57 None 0.76 None 0.88 None 52.2 None 22.9 None 0.81 None
48916 2020-10-21T04:32:56 /envAirQualityRESPIRA3 RESPIRA RESPIRA:RESPIRA_807D3AF39F6C 2020-10-21T04:32:56 None 141.95 None 3.74 None 2.32 None 3.1 None 3.63 None 92.97 None 15.99 None 0.88 None
48919 2020-10-21T04:44:19 /envAirQualityRESPIRA3 RESPIRA RESPIRA:RESPIRA_A4CF12755A8C 2020-10-21T04:44:19 None 32.03 None 0.56 None 0.44 None 0.51 None 0.55 None 57.78 None 20.51 None 0.6 None
48922 2020-10-21T04:54:39 /envAirQualityRESPIRA3 RESPIRA RESPIRA:RESPIRA_A4CF1275559C 2020-10-21T04:54:38 None 110.72 None 2.72 None 1.57 None 2.2 None 2.64 None 87.34 None 14.51 None 0.83 None
48923 2020-10-21T04:56:12 /envAirQualityRESPIRA3 RESPIRA RESPIRA:RESPIRA_807D3AF39838 2020-10-21T04:56:12 None 0 None 3.74 None 1.18 None 2.51 None 3.53 None 85.82 None 15.94 None 1.04 None
48928 2020-10-21T05:10:49 /envAirQualityRESPIRA3 RESPIRA RESPIRA:RESPIRA_30AEA4F1B87C 2020-10-21T05:10:48 None 27002.57 None 4.57 None 1.53 None 3.12 None 4.33 None 100.51 None 14.46 None 1.06 None
48929 2020-10-21T05:11:05 /envAirQualityRESPIRA3 RESPIRA RESPIRA:RESPIRA_246F28179F74 2020-10-21T05:11:05 None 33.58 None 0.34 None 0.3 None 0.33 None 0.34 None 49.11 None 23.79 None 0.66 None
48930 2020-10-21T05:12:27 /envAirQualityRESPIRA3 RESPIRA RESPIRA:RESPIRA_240AC4A26E00 2020-10-21T05:12:27 None 118.34 None 6.21 None 2.23 None 4.31 None 5.89 None 100.61 None 14.08 None 0.99 None
48915 2020-10-21T04:31:14 /envAirQualityRESPIRA3 RESPIRA RESPIRA:RESPIRA_A4CF1272ACE4 2020-10-21T04:31:14 None 0 None 3.76 None 1.53 None 2.71 None 3.58 None 77.42 None 15.77 None 0.82 None
48917 2020-10-21T04:34:21 /envAirQualityRESPIRA3 RESPIRA RESPIRA:RESPIRA_A4CF12752890 2020-10-21T04:34:20 None 33.58 None 0.06 None 0.04 None 0.05 None 0.06 None 54.09 None 22.49 None 0.78 None
48918 2020-10-21T04:39:32 /envAirQualityRESPIRA3 RESPIRA RESPIRA:RESPIRA_30AEA4F1D164 2020-10-21T04:39:31 None 19.12 None 0.42 None 0.38 None 0.41 None 0.42 None 62.83 None 19.06 None 0.65 None
48920 2020-10-21T04:49:46 /envAirQualityRESPIRA3 RESPIRA RESPIRA:RESPIRA_A4CF1272B60C 2020-10-21T04:49:45 None 115.18 None 2.32 None 1.23 None 1.83 None 2.25 None 86.46 None 15.57 None 0.81 None
48921 2020-10-21T04:51:38 /envAirQualityRESPIRA3 RESPIRA RESPIRA:RESPIRA_A4CF12758438 2020-10-21T04:51:38 None 54.56 None 3.15 None 1.52 None 2.39 None 3.03 None 88.65 None 15.38 None 0.77 None
48924 2020-10-21T04:56:51 /envAirQualityRESPIRA3 RESPIRA RESPIRA:RESPIRA_807D3AF398EC 2020-10-21T04:56:51 None 30027.2 None 5.79 None 1.8 None 3.87 None 5.47 None 92.55 None 13.89 None 0.99 None
48925 2020-10-21T04:59:35 /envAirQualityRESPIRA3 RESPIRA RESPIRA:RESPIRA_A4CF127501F8 2020-10-21T04:59:35 None 26.34 None 5.39 None 1.71 None 3.62 None 5.1 None 86.84 None 17.4 None 1.07 None
48926 2020-10-21T05:04:55 /envAirQualityRESPIRA3 RESPIRA RESPIRA:RESPIRA_A4CF12755D90 2020-10-21T05:04:55 None 82.8 None 3.42 None 1.17 None 2.35 None 3.24 None 83.11 None 16.42 None 0.98 None
48927 2020-10-21T05:07:35 /envAirQualityRESPIRA3 RESPIRA RESPIRA:RESPIRA_807D3AF39E18 2020-10-21T05:07:35 None 3.76 None 2.48 None 1.21 None 1.92 None 2.42 None 90.71 None 14.41 None 0.81 None
48933 2020-10-21T05:24:57 /envAirQualityRESPIRA3 RESPIRA RESPIRA:RESPIRA_A4CF12750498 2020-10-21T05:24:57 None 1.88 None 7.93 None 3.74 None 5.97 None 7.6 None 84.14 None 17.85 None 0.65 None
48934 2020-10-21T05:26:45 /envAirQualityRESPIRA3 RESPIRA RESPIRA:RESPIRA_807D3AF3AB0C 2020-10-21T05:26:45 None 0 None 3.83 None 1.33 None 2.64 None 3.63 None 96.12 None 16.56 None 1.05 None
48931 2020-10-21T05:21:04 /envAirQualityRESPIRA3 RESPIRA RESPIRA:RESPIRA_A4CF1275659C 2020-10-21T05:21:03 None 29.53 None 0.65 None 0.52 None 0.6 None 0.64 None 54.7 None 21.59 None 0.72 None
48932 2020-10-21T05:24:03 /envAirQualityRESPIRA3 RESPIRA RESPIRA:RESPIRA_240AC4A3EBF8 2020-10-21T05:24:03 None 4817.98 None 3.84 None 1.5 None 2.73 None 3.65 None 89.63 None 14.89 None 0.9 None
48937 2020-10-21T05:32:57 /envAirQualityRESPIRA3 RESPIRA RESPIRA:RESPIRA_807D3AF39F6C 2020-10-21T05:32:56 None 138.18 None 3.48 None 2.11 None 2.87 None 3.38 None 94.68 None 15.61 None 0.8 None
48938 2020-10-21T05:34:21 /envAirQualityRESPIRA3 RESPIRA RESPIRA:RESPIRA_A4CF12752890 2020-10-21T05:34:21 None 35.46 None 0.05 None 0.04 None 0.05 None 0.05 None 54.51 None 22.48 None 0.74 None
48939 2020-10-21T05:44:20 /envAirQualityRESPIRA3 RESPIRA RESPIRA:RESPIRA_A4CF12755A8C 2020-10-21T05:44:19 None 30.15 None 0.38 None 0.33 None 0.36 None 0.38 None 57.65 None 20.55 None 0.62 None
48943 2020-10-21T05:54:39 /envAirQualityRESPIRA3 RESPIRA RESPIRA:RESPIRA_A4CF1275559C 2020-10-21T05:54:39 None 105.07 None 3.56 None 1.69 None 2.69 None 3.42 None 90.42 None 13.95 None 0.84 None
48944 2020-10-21T05:56:12 /envAirQualityRESPIRA3 RESPIRA RESPIRA:RESPIRA_807D3AF39838 2020-10-21T05:56:12 None 0 None 3.65 None 1.18 None 2.46 None 3.45 None 85.69 None 15.84 None 1.02 None
48947 2020-10-21T06:04:56 /envAirQualityRESPIRA3 RESPIRA RESPIRA:RESPIRA_A4CF12755D90 2020-10-21T06:04:56 None 80.92 None 4.32 None 1.66 None 3.06 None 4.11 None 83.34 None 16.3 None 0.76 None
48948 2020-10-21T06:07:36 /envAirQualityRESPIRA3 RESPIRA RESPIRA:RESPIRA_807D3AF39E18 2020-10-21T06:07:36 None 3.76 None 2.36 None 1.05 None 1.78 None 2.3 None 88.49 None 14.5 None 0.89 None
48951 2020-10-21T06:12:27 /envAirQualityRESPIRA3 RESPIRA RESPIRA:RESPIRA_240AC4A26E00 2020-10-21T06:12:27 None 116.46 None 5.15 None 1.88 None 3.59 None 4.89 None 99.99 None 14.03 None 0.91 None
48952 2020-10-21T06:21:04 /envAirQualityRESPIRA3 RESPIRA RESPIRA:RESPIRA_A4CF1275659C 2020-10-21T06:21:04 None 27.65 None 0.47 None 0.37 None 0.43 None 0.46 None 54.62 None 21.63 None 0.71 None
48935 2020-10-21T05:28:05 /envAirQualityRESPIRA3 RESPIRA RESPIRA:RESPIRA_807D3AF35A5C 2020-10-21T05:28:05 None 0 None 2.34 None 1.54 None 1.99 None 2.28 None 104.17 None 13.98 None 0.74 None
48936 2020-10-21T05:31:15 /envAirQualityRESPIRA3 RESPIRA RESPIRA:RESPIRA_A4CF1272ACE4 2020-10-21T05:31:14 None 0 None 3.09 None 1.56 None 2.38 None 2.97 None 79.54 None 15.76 None 0.74 None
48940 2020-10-21T05:45:04 /envAirQualityRESPIRA3 RESPIRA RESPIRA:RESPIRA_30AEA4F1D164 2020-10-21T05:45:04 None 51.1 None 7.96 None 1.19 None 4.66 None 7.41 None 62.95 None 19.09 None 1.63 None
48941 2020-10-21T05:49:46 /envAirQualityRESPIRA3 RESPIRA RESPIRA:RESPIRA_A4CF1272B60C 2020-10-21T05:49:46 None 117.06 None 3.15 None 1.58 None 2.46 None 3.07 None 86.01 None 15.64 None 0.86 None
48942 2020-10-21T05:51:38 /envAirQualityRESPIRA3 RESPIRA RESPIRA:RESPIRA_A4CF12758438 2020-10-21T05:51:38 None 52.68 None 1.57 None 1.05 None 1.35 None 1.53 None 92.08 None 15.46 None 0.72 None
48945 2020-10-21T05:56:52 /envAirQualityRESPIRA3 RESPIRA RESPIRA:RESPIRA_807D3AF398EC 2020-10-21T05:56:52 None 32392.12 None 6.04 None 1.95 None 4.08 None 5.71 None 100.06 None 13.74 None 0.99 None
48946 2020-10-21T05:59:36 /envAirQualityRESPIRA3 RESPIRA RESPIRA:RESPIRA_A4CF127501F8 2020-10-21T05:59:35 None 22.58 None 5.47 None 1.58 None 3.6 None 5.16 None 86.45 None 17.57 None 1.11 None
48949 2020-10-21T06:10:49 /envAirQualityRESPIRA3 RESPIRA RESPIRA:RESPIRA_30AEA4F1B87C 2020-10-21T06:10:49 None 24306.52 None 4.79 None 1.64 None 3.29 None 4.54 None 98.9 None 14.51 None 0.89 None
48950 2020-10-21T06:11:05 /envAirQualityRESPIRA3 RESPIRA RESPIRA:RESPIRA_246F28179F74 2020-10-21T06:11:05 None 31.7 None 0.4 None 0.33 None 0.38 None 0.39 None 49.05 None 23.79 None 0.67 None
48953 2020-10-21T06:24:04 /envAirQualityRESPIRA3 RESPIRA RESPIRA:RESPIRA_240AC4A3EBF8 2020-10-21T06:24:03 None 4827.39 None 4 None 1.77 None 2.97 None 3.83 None 87.4 None 15.53 None 0.89 None
48957 2020-10-21T06:28:05 /envAirQualityRESPIRA3 RESPIRA RESPIRA:RESPIRA_807D3AF35A5C 2020-10-21T06:28:05 None 0 None 2.47 None 1.81 None 2.2 None 2.42 None 104.28 None 14.03 None 0.71 None
48954 2020-10-21T06:24:57 /envAirQualityRESPIRA3 RESPIRA RESPIRA:RESPIRA_A4CF12750498 2020-10-21T06:24:57 None 1.88 None 5.96 None 4.21 None 5.22 None 5.84 None 82.42 None 18.32 None 0.81 None
48955 2020-10-21T06:26:28 /envAirQualityRESPIRA3 RESPIRA RESPIRA:RESPIRA_807D3AF39910 2020-10-21T06:26:28 None 12.34 None 1.07 None 0.61 None 0.86 None 1.04 None 51.98 None 22.87 None 0.78 None
48956 2020-10-21T06:26:45 /envAirQualityRESPIRA3 RESPIRA RESPIRA:RESPIRA_807D3AF3AB0C 2020-10-21T06:26:45 None 0 None 4.21 None 1.4 None 2.86 None 3.98 None 97.04 None 16.2 None 1.01 None
48959 2020-10-21T06:32:57 /envAirQualityRESPIRA3 RESPIRA RESPIRA:RESPIRA_807D3AF39F6C 2020-10-21T06:32:57 None 138.18 None 3.85 None 2.82 None 3.42 None 3.78 None 96.17 None 15.43 None 0.72 None
48960 2020-10-21T06:34:21 /envAirQualityRESPIRA3 RESPIRA RESPIRA:RESPIRA_A4CF12752890 2020-10-21T06:34:21 None 35.46 None 0.31 None 0.28 None 0.31 None 0.31 None 54.77 None 22.48 None 0.56 None
48961 2020-10-21T06:44:20 /envAirQualityRESPIRA3 RESPIRA RESPIRA:RESPIRA_A4CF12755A8C 2020-10-21T06:44:20 None 30.15 None 0.5 None 0.47 None 0.5 None 0.5 None 56.26 None 20.45 None 0.52 None
48962 2020-10-21T06:45:05 /envAirQualityRESPIRA3 RESPIRA RESPIRA:RESPIRA_30AEA4F1D164 2020-10-21T06:45:04 None 17.24 None 0.78 None 0.49 None 0.65 None 0.76 None 63.44 None 19.03 None 0.86 None
48965 2020-10-21T06:54:39 /envAirQualityRESPIRA3 RESPIRA RESPIRA:RESPIRA_A4CF1275559C 2020-10-21T06:54:39 None 97.55 None 2.97 None 1.63 None 2.36 None 2.87 None 91.58 None 13.85 None 0.75 None
48966 2020-10-21T06:56:13 /envAirQualityRESPIRA3 RESPIRA RESPIRA:RESPIRA_807D3AF39838 2020-10-21T06:56:13 None 0 None 3.17 None 1.18 None 2.22 None 3.01 None 85.23 None 15.69 None 0.92 None
48967 2020-10-21T06:56:52 /envAirQualityRESPIRA3 RESPIRA RESPIRA:RESPIRA_807D3AF398EC 2020-10-21T06:56:52 None 39902.66 None 5.29 None 1.73 None 3.59 None 5.01 None 117.3 None 13.54 None 0.99 None
48968 2020-10-21T06:59:36 /envAirQualityRESPIRA3 RESPIRA RESPIRA:RESPIRA_A4CF127501F8 2020-10-21T06:59:36 None 22.58 None 5.57 None 1.68 None 3.7 None 5.26 None 87.81 None 17.32 None 0.97 None
48958 2020-10-21T06:31:15 /envAirQualityRESPIRA3 RESPIRA RESPIRA:RESPIRA_A4CF1272ACE4 2020-10-21T06:31:15 None 0 None 2.38 None 1.39 None 1.93 None 2.31 None 83.84 None 15.65 None 0.72 None
48963 2020-10-21T06:49:46 /envAirQualityRESPIRA3 RESPIRA RESPIRA:RESPIRA_A4CF1272B60C 2020-10-21T06:49:46 None 115.18 None 2.37 None 1.29 None 1.89 None 2.31 None 87.34 None 15.78 None 0.77 None
48964 2020-10-21T06:51:39 /envAirQualityRESPIRA3 RESPIRA RESPIRA:RESPIRA_A4CF12758438 2020-10-21T06:51:39 None 50.8 None 0.85 None 0.73 None 0.81 None 0.84 None 93.35 None 15.53 None 0.64 None
48969 2020-10-21T07:04:56 /envAirQualityRESPIRA3 RESPIRA RESPIRA:RESPIRA_A4CF12755D90 2020-10-21T07:04:56 None 65.87 None 4.12 None 2.36 None 3.32 None 3.99 None 85.49 None 15.8 None 0.81 None
48970 2020-10-21T07:07:36 /envAirQualityRESPIRA3 RESPIRA RESPIRA:RESPIRA_807D3AF39E18 2020-10-21T07:07:36 None 3.76 None 3.34 None 1.38 None 2.49 None 3.26 None 87.1 None 14.25 None 0.86 None
48972 2020-10-21T07:11:07 /envAirQualityRESPIRA3 RESPIRA RESPIRA:RESPIRA_246F28179F74 2020-10-21T07:11:07 None 35.46 None 0.41 None 0.34 None 0.39 None 0.4 None 49.04 None 23.75 None 0.71 None
48979 2020-10-21T07:28:06 /envAirQualityRESPIRA3 RESPIRA RESPIRA:RESPIRA_807D3AF35A5C 2020-10-21T07:28:06 None 0 None 2.06 None 1.66 None 1.91 None 2.03 None 104.12 None 13.9 None 0.61 None
48984 2020-10-21T07:45:58 /envAirQualityRESPIRA3 RESPIRA RESPIRA:RESPIRA_30AEA4F1D164 2020-10-21T07:45:57 None 0 None 21.72 None 3.41 None 12.8 None 20.23 None 63.7 None 19.07 None 1.63 None
48986 2020-10-21T07:51:39 /envAirQualityRESPIRA3 RESPIRA RESPIRA:RESPIRA_A4CF12758438 2020-10-21T07:51:39 None 54.56 None 1.17 None 0.96 None 1.09 None 1.16 None 95.28 None 15.6 None 0.68 None
48987 2020-10-21T07:54:39 /envAirQualityRESPIRA3 RESPIRA RESPIRA:RESPIRA_A4CF1275559C 2020-10-21T07:54:39 None 108.84 None 1.84 None 1.16 None 1.54 None 1.79 None 87.08 None 15.63 None 0.8 None
48988 2020-10-21T07:56:13 /envAirQualityRESPIRA3 RESPIRA RESPIRA:RESPIRA_807D3AF39838 2020-10-21T07:56:13 None 0 None 2.6 None 1.41 None 2.06 None 2.51 None 83.93 None 15.84 None 0.84 None
48971 2020-10-21T07:10:49 /envAirQualityRESPIRA3 RESPIRA RESPIRA:RESPIRA_30AEA4F1B87C 2020-10-21T07:10:49 None 21659.39 None 7.87 None 5.72 None 6.97 None 7.72 None 98.53 None 14.23 None 0.56 None

Información adicional

Campo Valor
Formato CSV
Licencia Creative Commons Attribution
formatCSV
package id87b2f4b5-49dc-42a7-8d26-d9da0832060f
revision id0a2f18a9-bd55-451f-af40-9d0add2b4d1e
stateactive